Time;durP1;ratioP1;P1;durP2;ratioP2;P2;SDS_P1;SDS_P2;PMS_P1;PMS_P2;Temp;Humidity;BMP_temperature;BMP_pressure;BME280_temperature;BME280_humidity;BME280_pressure;Samples;Min_cycle;Max_cycle;Signal;HPM_P1;HPM_P2
2023/07/23 00:01:14;;;;;;;10.20;7.20;;;;;;;27.32;49.91;95086.53;6130067;28;108921;-61
2023/07/23 00:04:17;;;;;;;11.47;7.80;;;;;;;27.32;49.56;95084.63;6118831;28;109028;-62
2023/07/23 00:07:20;;;;;;;11.00;6.90;;;;;;;27.24;49.88;95090.09;6119691;28;109399;-61
2023/07/23 00:10:25;;;;;;;10.97;7.90;;;;;;;27.32;49.42;95083.84;6114413;28;109123;-62
2023/07/23 00:13:28;;;;;;;10.43;7.60;;;;;;;27.24;49.95;95101.63;6114792;28;110262;-61
2023/07/23 00:16:32;;;;;;;12.53;7.27;;;;;;;27.26;49.95;95099.44;6113881;28;109109;-61
2023/07/23 00:19:35;;;;;;;8.10;7.00;;;;;;;27.31;50.09;95107.25;6114715;28;109261;-61
2023/07/23 00:22:38;;;;;;;14.17;6.97;;;;;;;27.32;49.00;95110.72;6103947;28;109949;-61
2023/07/23 00:25:43;;;;;;;13.30;7.63;;;;;;;27.27;49.12;95103.69;6116781;28;109113;-61
2023/07/23 00:28:46;;;;;;;8.90;6.87;;;;;;;27.24;48.94;95107.00;6113204;28;109132;-61
2023/07/23 00:31:49;;;;;;;8.57;6.47;;;;;;;27.28;49.15;95116.00;6125608;28;109407;-62
2023/07/23 00:34:52;;;;;;;12.67;6.50;;;;;;;27.33;49.55;95115.75;6112211;28;110635;-61
2023/07/23 00:37:55;;;;;;;10.67;7.23;;;;;;;27.35;48.87;95121.56;6112248;28;109403;-61
2023/07/23 00:41:00;;;;;;;9.03;6.53;;;;;;;27.38;48.60;95123.56;6114589;28;109104;-62
2023/07/23 00:44:03;;;;;;;11.37;6.27;;;;;;;27.39;48.73;95122.47;6103723;28;111403;-61
2023/07/23 00:47:08;;;;;;;9.07;5.43;;;;;;;27.33;49.29;95128.41;6113614;28;110442;-62
2023/07/23 00:50:13;;;;;;;9.33;6.27;;;;;;;27.10;49.46;95128.84;6120232;28;109139;-62
2023/07/23 00:53:17;;;;;;;14.10;8.57;;;;;;;27.13;49.29;95122.00;6123423;28;109279;-61
2023/07/23 00:56:21;;;;;;;10.17;6.67;;;;;;;27.20;48.72;95134.88;6103707;28;109612;-62
2023/07/23 00:59:25;;;;;;;15.73;7.07;;;;;;;27.04;49.55;95138.22;6113974;28;109288;-62
2023/07/23 01:02:28;;;;;;;8.90;6.50;;;;;;;27.16;48.61;95132.88;6129896;28;108880;-61
2023/07/23 01:05:33;;;;;;;11.13;7.40;;;;;;;27.21;48.57;95145.28;6107782;28;110996;-62
2023/07/23 01:08:37;;;;;;;11.80;7.13;;;;;;;27.26;48.70;95145.09;6106839;28;109119;-67
2023/07/23 01:11:42;;;;;;;11.10;7.00;;;;;;;27.30;48.81;95162.13;6113597;28;109330;-68
2023/07/23 01:14:45;;;;;;;10.27;7.10;;;;;;;27.29;48.71;95159.78;6113888;28;112068;-67
2023/07/23 01:17:51;;;;;;;10.90;6.13;;;;;;;27.21;48.38;95155.25;6103133;28;111878;-67
2023/07/23 01:20:54;;;;;;;10.80;6.50;;;;;;;27.12;48.60;95152.69;6113580;28;109133;-67
2023/07/23 01:23:59;;;;;;;13.00;7.20;;;;;;;27.16;48.14;95151.66;6113597;28;110159;-67
2023/07/23 01:27:02;;;;;;;12.77;6.80;;;;;;;27.11;48.22;95156.50;6112224;28;109256;-67
2023/07/23 01:30:08;;;;;;;12.53;6.63;;;;;;;27.25;48.09;95162.31;6103464;28;109024;-66
2023/07/23 01:33:12;;;;;;;12.80;7.07;;;;;;;27.28;48.47;95160.88;6113134;28;109127;-67
2023/07/23 01:36:17;;;;;;;9.70;6.60;;;;;;;27.26;47.72;95165.81;6121084;28;109929;-66
2023/07/23 01:39:22;;;;;;;12.23;6.43;;;;;;;27.27;48.26;95181.59;6085773;28;109776;-64
2023/07/23 01:42:25;;;;;;;10.53;6.33;;;;;;;27.29;47.92;95176.69;6107146;28;110283;-68
2023/07/23 01:45:29;;;;;;;10.73;6.50;;;;;;;27.32;47.60;95189.44;6119274;28;109321;-68
2023/07/23 01:48:32;;;;;;;11.97;6.60;;;;;;;27.32;47.58;95194.81;6112783;28;109468;-67
2023/07/23 01:51:36;;;;;;;8.50;5.87;;;;;;;27.23;48.16;95194.13;6103235;28;109886;-68
2023/07/23 01:54:40;;;;;;;13.77;6.17;;;;;;;27.18;48.25;95205.06;6111656;28;109294;-68
2023/07/23 01:57:44;;;;;;;8.27;6.50;;;;;;;27.28;48.08;95220.78;6111718;28;109227;-69
2023/07/23 02:00:47;;;;;;;9.70;6.77;;;;;;;27.10;48.43;95219.41;6115899;28;110209;-68
2023/07/23 02:03:50;;;;;;;9.37;6.33;;;;;;;27.03;49.14;95224.53;6101621;28;109068;-67
2023/07/23 02:06:53;;;;;;;11.60;6.10;;;;;;;27.20;47.83;95224.31;6112278;28;110218;-67
2023/07/23 02:09:58;;;;;;;10.20;6.20;;;;;;;27.26;48.20;95239.16;6111912;28;109101;-67
2023/07/23 02:13:01;;;;;;;9.80;6.40;;;;;;;27.21;48.43;95239.31;6112449;28;109049;-68
2023/07/23 02:16:04;;;;;;;8.47;6.10;;;;;;;27.17;48.43;95257.25;6102691;28;110133;-61
2023/07/23 02:19:07;;;;;;;13.27;6.70;;;;;;;27.19;48.23;95244.25;6111612;28;109237;-62
2023/07/23 02:22:10;;;;;;;8.77;6.37;;;;;;;27.21;48.73;95258.13;6131418;28;109573;-61
2023/07/23 02:25:15;;;;;;;12.10;6.23;;;;;;;27.23;48.63;95255.94;6108047;28;109062;-61
2023/07/23 02:28:18;;;;;;;9.33;6.47;;;;;;;27.22;48.04;95257.03;6106057;28;109276;-62
2023/07/23 02:31:21;;;;;;;13.53;6.27;;;;;;;27.27;48.19;95259.53;6114879;28;109162;-62
2023/07/23 02:34:24;;;;;;;9.67;6.27;;;;;;;27.28;48.06;95253.03;6112367;28;110382;-62
2023/07/23 02:37:27;;;;;;;13.70;6.07;;;;;;;27.25;48.70;95244.84;6101263;28;109126;-61
2023/07/23 02:40:33;;;;;;;9.03;6.00;;;;;;;27.25;48.16;95251.00;6115683;28;109176;-61
2023/07/23 02:43:37;;;;;;;13.87;6.60;;;;;;;27.23;49.08;95249.78;6122789;28;109365;-61
2023/07/23 02:46:40;;;;;;;11.20;6.70;;;;;;;27.13;48.82;95245.59;6121147;28;109128;-62
2023/07/23 02:49:43;;;;;;;10.10;6.83;;;;;;;27.16;48.97;95251.09;6102181;28;109121;-62
2023/07/23 02:52:46;;;;;;;10.13;6.10;;;;;;;27.16;49.46;95255.66;6112110;28;109307;-63
2023/07/23 02:55:51;;;;;;;8.50;6.37;;;;;;;27.15;49.30;95260.25;6111296;28;109106;-62
2023/07/23 02:58:54;;;;;;;13.43;7.30;;;;;;;27.14;49.05;95265.97;6108614;28;109113;-62
2023/07/23 03:01:57;;;;;;;17.90;7.80;;;;;;;27.12;49.55;95263.63;6114567;28;108947;-61
2023/07/23 03:05:00;;;;;;;11.60;7.43;;;;;;;27.16;49.45;95274.47;6111807;28;109159;-62
2023/07/23 03:08:03;;;;;;;13.33;7.50;;;;;;;27.16;49.03;95267.19;6115854;28;108882;-61
2023/07/23 03:11:08;;;;;;;13.60;7.60;;;;;;;27.16;49.89;95266.41;6100335;28;109276;-62
2023/07/23 03:14:11;;;;;;;13.50;8.33;;;;;;;27.20;50.17;95261.16;6111061;28;109137;-62
2023/07/23 03:17:14;;;;;;;12.43;9.47;;;;;;;27.17;49.83;95273.38;6110985;28;108809;-62
2023/07/23 03:20:17;;;;;;;13.60;9.90;;;;;;;27.15;49.94;95264.84;6112217;28;109113;-61
2023/07/23 03:23:21;;;;;;;11.77;10.53;;;;;;;27.16;50.55;95264.50;6119265;28;109468;-62
2023/07/23 03:26:25;;;;;;;13.93;9.50;;;;;;;27.16;50.44;95267.19;6117036;28;109254;-67
2023/07/23 03:29:28;;;;;;;11.90;10.70;;;;;;;27.17;50.29;95266.09;6125308;28;109322;-68
2023/07/23 03:32:32;;;;;;;11.90;10.70;;;;;;;27.13;50.28;95273.25;6140322;28;108796;-68
2023/07/23 03:35:36;;;;;;;15.10;11.03;;;;;;;27.16;50.62;95266.41;6104844;28;109078;-68
2023/07/23 03:38:39;;;;;;;15.80;11.10;;;;;;;27.15;50.60;95262.16;6115664;28;109382;-69
2023/07/23 03:41:43;;;;;;;13.87;11.20;;;;;;;27.16;50.94;95269.88;6114645;28;109135;-68
2023/07/23 03:44:46;;;;;;;12.30;10.87;;;;;;;27.18;50.70;95273.03;6123836;28;109075;-67
2023/07/23 03:47:49;;;;;;;13.47;11.57;;;;;;;27.21;50.59;95268.88;6119658;28;109119;-67
2023/07/23 03:50:52;;;;;;;13.33;11.43;;;;;;;27.22;50.62;95265.09;6114978;28;109030;-68
2023/07/23 03:53:56;;;;;;;12.50;10.90;;;;;;;27.20;50.13;95272.69;6120830;28;109138;-69
2023/07/23 03:57:00;;;;;;;12.67;11.47;;;;;;;27.21;50.80;95279.63;6114876;28;109095;-67
2023/07/23 04:00:05;;;;;;;16.43;11.47;;;;;;;27.20;50.49;95286.13;6115014;28;109144;-66
2023/07/23 04:03:08;;;;;;;11.70;10.50;;;;;;;27.20;50.31;95283.44;6112923;28;109059;-68
2023/07/23 04:06:12;;;;;;;12.50;11.20;;;;;;;27.21;50.82;95274.25;6137191;28;109133;-67
2023/07/23 04:09:15;;;;;;;12.23;11.03;;;;;;;27.22;50.16;95275.84;6104452;28;109121;-68
2023/07/23 04:12:19;;;;;;;12.47;10.50;;;;;;;27.24;50.06;95276.31;6114056;28;108802;-67
2023/07/23 04:15:22;;;;;;;13.30;11.90;;;;;;;27.20;50.29;95283.44;6123630;28;109152;-67
2023/07/23 04:18:25;;;;;;;12.80;11.60;;;;;;;27.26;50.41;95279.47;6110957;28;110123;-65
2023/07/23 04:21:28;;;;;;;15.50;12.30;;;;;;;27.31;49.80;95283.84;6108423;28;109147;-67
2023/07/23 04:24:32;;;;;;;15.13;13.83;;;;;;;27.31;50.06;95281.94;6118914;28;109198;-68
2023/07/23 04:27:36;;;;;;;14.60;13.30;;;;;;;27.31;50.46;95273.88;6112846;28;110350;-69
2023/07/23 04:30:39;;;;;;;15.30;13.50;;;;;;;27.35;49.84;95282.81;6103838;28;109111;-68
2023/07/23 04:33:42;;;;;;;13.77;12.53;;;;;;;27.38;50.04;95284.06;6120334;28;110088;-68
2023/07/23 04:36:45;;;;;;;14.10;12.70;;;;;;;27.38;50.12;95287.53;6107792;28;109274;-60
2023/07/23 04:39:49;;;;;;;14.47;13.00;;;;;;;27.40;49.69;95293.38;6121032;28;109160;-60
2023/07/23 04:42:53;;;;;;;15.73;14.10;;;;;;;27.40;50.47;95289.91;6121577;28;109401;-60
2023/07/23 04:45:57;;;;;;;15.93;14.27;;;;;;;27.39;49.93;95296.41;6134283;28;112406;-60
2023/07/23 04:49:00;;;;;;;17.13;14.50;;;;;;;27.37;49.89;95287.88;6117720;28;109376;-61
2023/07/23 04:52:03;;;;;;;14.97;13.60;;;;;;;27.40;50.06;95293.38;6128835;28;110256;-61
2023/07/23 04:55:08;;;;;;;14.40;13.20;;;;;;;27.40;49.34;95293.38;6122087;28;109102;-61
2023/07/23 04:58:12;;;;;;;15.07;13.57;;;;;;;27.39;49.73;95301.78;6114995;28;109277;-61
2023/07/23 05:01:15;;;;;;;14.80;13.60;;;;;;;27.40;49.60;95298.75;6128079;28;108897;-60
2023/07/23 05:04:19;;;;;;;15.23;14.00;;;;;;;27.40;50.05;95298.75;6122045;28;109237;-63
2023/07/23 05:07:22;;;;;;;17.27;15.87;;;;;;;27.39;50.33;95296.41;6107116;28;108957;-61
2023/07/23 05:10:25;;;;;;;17.00;15.50;;;;;;;27.37;49.46;95301.31;6127168;28;109223;-65
2023/07/23 05:13:30;;;;;;;16.40;14.83;;;;;;;27.39;49.92;95305.25;6131373;28;110183;-61
2023/07/23 05:16:34;;;;;;;16.00;14.50;;;;;;;27.45;49.64;95306.59;6106475;28;109151;-62
2023/07/23 05:19:37;;;;;;;17.20;15.60;;;;;;;27.43;49.59;95311.53;6115255;28;110381;-61
2023/07/23 05:22:41;;;;;;;17.50;15.70;;;;;;;27.40;50.72;95303.34;6131935;28;109188;-61
2023/07/23 05:25:44;;;;;;;19.30;16.80;;;;;;;27.34;52.04;95308.13;6117066;28;109473;-61
2023/07/23 05:28:48;;;;;;;18.90;16.90;;;;;;;27.38;53.22;95306.34;6102730;28;109866;-61
2023/07/23 05:31:52;;;;;;;18.33;16.47;;;;;;;27.43;51.45;95306.16;6089241;28;109153;-62
2023/07/23 05:34:55;;;;;;;17.70;16.10;;;;;;;27.42;51.08;95315.34;6116107;28;109307;-61
2023/07/23 05:37:58;;;;;;;17.30;15.90;;;;;;;27.43;50.93;95311.53;6112464;28;109704;-68
2023/07/23 05:41:01;;;;;;;17.90;16.30;;;;;;;27.36;51.20;95316.66;6109317;28;110195;-61
2023/07/23 05:44:05;;;;;;;16.60;15.07;;;;;;;27.27;50.09;95315.97;6127846;28;109278;-64
2023/07/23 05:47:09;;;;;;;15.00;13.57;;;;;;;27.26;49.56;95314.41;6127362;28;109123;-63
2023/07/23 05:50:12;;;;;;;15.60;14.03;;;;;;;27.26;50.11;95308.25;6112716;28;109119;-62
2023/07/23 05:53:15;;;;;;;16.97;15.37;;;;;;;27.19;50.60;95308.75;6115394;28;109558;-63
2023/07/23 05:56:18;;;;;;;16.77;15.27;;;;;;;27.28;50.63;95312.16;6118883;28;109205;-63
2023/07/23 05:59:22;;;;;;;17.93;16.43;;;;;;;27.28;51.01;95317.53;6117705;28;109147;-61
2023/07/23 06:02:25;;;;;;;17.43;15.87;;;;;;;27.34;52.37;95310.81;6120371;28;109957;-62
2023/07/23 06:05:29;;;;;;;16.20;14.90;;;;;;;27.41;51.03;95311.09;6119249;28;109291;-62
2023/07/23 06:08:32;;;;;;;17.83;16.13;;;;;;;27.53;51.99;95312.19;6111574;28;109656;-62
2023/07/23 06:11:35;;;;;;;17.53;15.90;;;;;;;27.65;51.52;95309.53;6129137;28;109043;-62
2023/07/23 06:14:40;;;;;;;19.93;17.10;;;;;;;27.70;51.66;95304.72;6115950;28;109259;-62
2023/07/23 06:17:44;;;;;;;18.80;16.93;;;;;;;27.74;51.89;95302.16;6112937;28;109378;-62
2023/07/23 06:20:47;;;;;;;20.80;17.03;;;;;;;27.78;52.55;95308.44;6126996;28;109190;-62
2023/07/23 06:23:50;;;;;;;16.93;15.53;;;;;;;27.85;52.11;95308.63;6112069;28;110049;-64
2023/07/23 06:26:53;;;;;;;17.97;16.07;;;;;;;27.86;52.38;95304.84;6111151;28;109149;-63
2023/07/23 06:29:57;;;;;;;15.60;14.27;;;;;;;27.68;52.06;95308.84;6131006;28;109330;-62
2023/07/23 06:33:00;;;;;;;15.23;13.73;;;;;;;27.68;51.16;95306.94;6110902;28;109282;-63
2023/07/23 06:36:04;;;;;;;13.73;12.43;;;;;;;27.63;50.50;95301.03;6115861;28;109114;-63
2023/07/23 06:39:07;;;;;;;13.97;12.60;;;;;;;27.80;50.21;95294.63;6125370;28;109569;-63
2023/07/23 06:42:10;;;;;;;14.20;12.97;;;;;;;27.84;50.50;95296.31;6112036;28;108695;-63
2023/07/23 06:45:15;;;;;;;14.63;12.33;;;;;;;27.93;50.09;95298.94;6110991;28;109056;-63
2023/07/23 06:48:19;;;;;;;14.93;13.33;;;;;;;27.86;49.29;95304.03;6101755;28;110106;-63
2023/07/23 06:51:22;;;;;;;14.50;12.30;;;;;;;27.71;49.71;95306.28;6113084;28;108866;-63
2023/07/23 06:54:26;;;;;;;13.40;12.10;;;;;;;27.82;49.49;95303.16;6109539;28;109225;-64
2023/07/23 06:57:29;;;;;;;13.93;12.13;;;;;;;27.88;49.20;95299.91;6101470;28;109187;-70
2023/07/23 07:00:33;;;;;;;15.03;12.17;;;;;;;27.91;48.62;95296.59;6105556;28;109342;-71
2023/07/23 07:03:36;;;;;;;12.97;10.57;;;;;;;27.93;48.74;95301.63;6130965;28;109172;-71
2023/07/23 07:06:40;;;;;;;12.53;11.20;;;;;;;27.86;48.06;95310.25;6132116;28;109154;-70
2023/07/23 07:09:43;;;;;;;12.17;10.97;;;;;;;27.88;47.82;95313.38;6127837;28;109088;-69
2023/07/23 07:12:46;;;;;;;12.17;11.17;;;;;;;27.91;48.04;95315.41;6117035;28;109040;-70
2023/07/23 07:15:50;;;;;;;12.00;10.90;;;;;;;28.01;47.50;95314.16;6123066;28;109102;-69
2023/07/23 07:18:54;;;;;;;13.00;10.73;;;;;;;27.78;48.24;95319.19;6127358;28;109120;-69
2023/07/23 07:21:57;;;;;;;11.03;10.13;;;;;;;26.94;46.83;95315.16;6118242;28;109926;-69
2023/07/23 07:25:00;;;;;;;10.97;10.00;;;;;;;26.44;45.32;95316.81;6125292;28;109011;-70
2023/07/23 07:28:03;;;;;;;11.63;10.63;;;;;;;26.22;45.39;95315.22;6117452;28;109312;-69
2023/07/23 07:31:10;;;;;;;12.17;10.93;;;;;;;25.93;45.29;95317.88;6124407;28;111637;-68
2023/07/23 07:34:13;;;;;;;12.00;10.50;;;;;;;25.86;44.09;95317.56;6107777;28;109620;-68
2023/07/23 07:37:16;;;;;;;10.80;9.87;;;;;;;25.76;43.79;95317.97;6115665;28;109131;-63
2023/07/23 07:40:20;;;;;;;11.67;10.47;;;;;;;25.45;43.24;95310.19;6117769;28;109139;-63
2023/07/23 07:43:23;;;;;;;11.40;10.20;;;;;;;25.31;42.45;95310.34;6109823;28;110101;-65
2023/07/23 07:46:28;;;;;;;9.83;8.93;;;;;;;25.24;41.92;95313.53;6112145;28;108930;-62
2023/07/23 07:49:31;;;;;;;13.53;10.10;;;;;;;25.29;42.26;95313.34;6118533;28;109103;-65
2023/07/23 07:52:35;;;;;;;9.83;9.00;;;;;;;25.18;41.67;95305.97;6125807;28;109132;-64
2023/07/23 07:55:43;;;;;;;10.33;9.27;;;;;;;25.00;41.71;95297.97;6106747;28;109921;-64
2023/07/23 07:58:47;;;;;;;9.90;8.90;;;;;;;25.13;40.31;95295.44;6124830;28;109223;-64
2023/07/23 08:01:53;;;;;;;9.67;8.87;;;;;;;24.98;40.67;95294.06;6116587;28;109054;-65
2023/07/23 08:04:56;;;;;;;10.10;9.10;;;;;;;24.91;40.79;95293.75;6116880;28;109081;-63
2023/07/23 08:08:04;;;;;;;11.30;10.10;;;;;;;24.87;40.46;95293.63;6111684;28;110021;-60
2023/07/23 08:11:08;;;;;;;12.90;10.07;;;;;;;24.91;41.30;95299.91;6114744;28;109349;-62
2023/07/23 08:14:14;;;;;;;11.40;10.23;;;;;;;24.93;41.74;95294.22;6123317;28;109285;-63
2023/07/23 08:17:20;;;;;;;11.03;9.93;;;;;;;24.77;41.85;95297.38;6115870;28;109125;-65
2023/07/23 08:20:24;;;;;;;16.20;10.83;;;;;;;24.59;41.90;95300.38;6113467;28;109852;-64
2023/07/23 08:23:28;;;;;;;12.07;10.00;;;;;;;24.59;41.37;95303.81;6125559;28;110253;-62
2023/07/23 08:26:36;;;;;;;10.87;9.77;;;;;;;24.50;41.42;95303.03;6114847;28;109060;-63
2023/07/23 08:29:43;;;;;;;12.33;11.13;;;;;;;24.32;41.46;95296.09;6111012;28;109282;-63
2023/07/23 08:32:51;;;;;;;12.43;10.93;;;;;;;24.29;41.68;95296.72;6118552;28;109089;-62
2023/07/23 08:35:55;;;;;;;14.00;12.90;;;;;;;24.44;41.92;95299.72;6127145;28;109259;-63
2023/07/23 08:38:58;;;;;;;14.47;13.27;;;;;;;24.56;41.54;95293.75;6114232;28;110121;-65
2023/07/23 08:42:31;;;;;;;16.47;14.90;;;;;;;24.46;42.02;95294.84;6111811;28;110305;-62
2023/07/23 08:46:09;;;;;;;16.20;14.70;;;;;;;24.31;42.11;95297.19;6117205;28;110020;-63
2023/07/23 08:49:15;;;;;;;16.43;14.87;;;;;;;24.36;42.05;95289.00;6122059;28;109138;-62
2023/07/23 08:52:21;;;;;;;16.67;15.23;;;;;;;24.24;41.81;95276.28;6118850;28;109312;-63
2023/07/23 08:55:24;;;;;;;17.73;16.10;;;;;;;24.13;42.06;95286.47;6137333;28;109357;-63
2023/07/23 08:58:27;;;;;;;17.67;16.07;;;;;;;24.10;42.50;95281.75;6117964;28;109565;-64
2023/07/23 09:01:33;;;;;;;17.40;15.80;;;;;;;24.19;41.39;95287.09;6115723;28;109356;-63
2023/07/23 09:04:38;;;;;;;16.80;15.20;;;;;;;24.13;41.27;95277.66;6116535;28;109130;-64
2023/07/23 09:07:41;;;;;;;15.43;14.13;;;;;;;23.94;40.91;95285.16;6118290;28;109000;-64
2023/07/23 09:10:44;;;;;;;16.80;15.20;;;;;;;24.03;39.72;95270.75;6113921;28;109113;-64
2023/07/23 09:13:48;;;;;;;15.13;13.83;;;;;;;24.02;39.82;95290.53;6126335;28;109257;-66
2023/07/23 09:16:51;;;;;;;14.40;13.20;;;;;;;24.15;39.49;95286.16;6106575;28;109144;-63
2023/07/23 09:19:56;;;;;;;14.90;13.50;;;;;;;24.12;39.72;95290.25;6113997;28;108973;-68
2023/07/23 09:23:06;;;;;;;14.13;12.80;;;;;;;24.12;39.54;95287.56;6129276;28;109096;-68
2023/07/23 09:26:09;;;;;;;13.97;12.60;;;;;;;24.16;39.53;95280.50;6101752;28;109111;-68
2023/07/23 09:29:12;;;;;;;12.63;11.53;;;;;;;24.02;39.46;95295.88;6126055;28;109281;-67
2023/07/23 09:32:26;;;;;;;12.73;11.57;;;;;;;24.04;39.13;95296.38;6114377;28;109429;-67
2023/07/23 09:35:31;;;;;;;12.87;11.77;;;;;;;24.02;39.40;95290.53;6122085;28;109110;-67
2023/07/23 09:38:34;;;;;;;12.60;11.30;;;;;;;23.99;39.59;95285.78;6092679;28;109094;-69
2023/07/23 09:41:39;;;;;;;11.77;10.60;;;;;;;24.03;39.83;95291.34;6123181;28;109880;-68
2023/07/23 09:44:43;;;;;;;11.70;10.60;;;;;;;23.94;40.00;95283.28;6124728;28;109037;-68
2023/07/23 09:47:46;;;;;;;15.10;11.10;;;;;;;23.98;40.46;95286.09;6112554;28;109131;-68
2023/07/23 09:50:57;;;;;;;12.00;10.90;;;;;;;24.22;40.20;95285.72;6102858;28;110059;-67
2023/07/23 09:54:01;;;;;;;11.77;10.67;;;;;;;24.40;39.69;95279.28;6113038;28;110770;-67
2023/07/23 09:57:06;;;;;;;11.10;10.10;;;;;;;24.33;39.77;95276.25;6118761;28;109163;-70
2023/07/23 10:00:11;;;;;;;10.57;9.67;;;;;;;24.61;39.35;95274.06;6102291;28;109405;-69
2023/07/23 10:03:16;;;;;;;10.70;9.80;;;;;;;24.66;39.23;95271.22;6113199;28;109132;-68
2023/07/23 10:06:23;;;;;;;12.90;10.30;;;;;;;24.59;40.24;95270.94;6116322;28;109404;-68
2023/07/23 10:09:27;;;;;;;10.60;9.60;;;;;;;24.08;40.33;95283.19;6114053;28;109323;-67
2023/07/23 10:12:30;;;;;;;11.43;10.33;;;;;;;24.24;40.50;95270.94;6121357;28;109252;-67
2023/07/23 10:15:34;;;;;;;12.17;10.57;;;;;;;24.05;40.66;95270.44;6126827;28;110278;-69
2023/07/23 10:18:41;;;;;;;11.53;10.33;;;;;;;23.98;40.39;95278.88;6115162;28;109342;-68
2023/07/23 10:21:49;;;;;;;10.77;9.70;;;;;;;23.88;40.47;95274.63;6112389;28;109261;-68
2023/07/23 10:24:52;;;;;;;10.63;9.60;;;;;;;23.97;40.42;95266.59;6108184;28;109280;-67
2023/07/23 10:27:58;;;;;;;13.40;9.90;;;;;;;23.91;40.59;95257.16;6118556;28;109112;-63
2023/07/23 10:31:19;;;;;;;11.30;10.20;;;;;;;23.92;41.31;95256.06;6114135;28;109957;-63
2023/07/23 10:34:41;;;;;;;10.23;9.23;;;;;;;24.01;41.08;95251.53;6109431;28;109217;-63
2023/07/23 10:38:19;;;;;;;9.83;8.93;;;;;;;23.97;40.72;95257.81;6114843;28;109287;-63
2023/07/23 10:41:47;;;;;;;10.73;9.57;;;;;;;24.00;41.18;95249.97;6124988;28;109175;-63
2023/07/23 10:45:15;;;;;;;11.40;9.77;;;;;;;24.01;40.84;95256.09;6096814;28;109309;-63
2023/07/23 10:48:18;;;;;;;11.10;9.77;;;;;;;23.80;41.03;95254.00;6120280;28;109790;-63
2023/07/23 10:51:23;;;;;;;10.27;9.37;;;;;;;23.91;41.33;95257.16;6123111;28;110624;-63
2023/07/23 10:54:27;;;;;;;10.97;9.97;;;;;;;23.87;41.28;95254.34;6134132;28;110217;-63
2023/07/23 10:57:32;;;;;;;9.90;9.00;;;;;;;23.79;41.04;95251.63;6115760;28;110189;-63
2023/07/23 11:00:35;;;;;;;9.80;8.90;;;;;;;23.68;40.92;95253.78;6121899;28;109244;-63
2023/07/23 11:03:44;;;;;;;9.97;8.77;;;;;;;23.67;40.61;95240.75;6125362;28;109264;-63
2023/07/23 11:06:58;;;;;;;10.97;9.87;;;;;;;23.58;40.61;95249.53;6121438;28;109133;-63
2023/07/23 11:10:19;;;;;;;11.07;9.10;;;;;;;23.65;40.74;95259.78;6104217;28;109133;-64
2023/07/23 11:13:23;;;;;;;16.90;9.40;;;;;;;23.54;40.97;95245.13;6115758;28;109062;-64
2023/07/23 11:16:27;;;;;;;10.13;9.13;;;;;;;23.33;41.14;95236.88;6113946;28;110335;-64
2023/07/23 11:19:31;;;;;;;11.10;10.10;;;;;;;23.27;41.15;95243.44;6111373;28;109972;-63
2023/07/23 11:22:34;;;;;;;11.13;9.93;;;;;;;23.79;39.71;95239.06;6119911;28;109260;-62
2023/07/23 11:25:39;;;;;;;9.40;8.50;;;;;;;24.29;38.93;95244.03;6129371;28;110287;-62
2023/07/23 11:28:42;;;;;;;10.43;9.33;;;;;;;24.60;38.76;95246.53;6135693;28;109272;-62
2023/07/23 11:31:46;;;;;;;11.47;9.30;;;;;;;24.78;38.03;95244.63;6113816;28;109353;-62
2023/07/23 11:34:49;;;;;;;9.93;9.03;;;;;;;24.76;38.14;95244.97;6127536;28;109180;-62
2023/07/23 11:37:52;;;;;;;9.60;8.70;;;;;;;24.77;38.14;95235.81;6122876;28;109303;-62
2023/07/23 11:40:59;;;;;;;10.07;8.23;;;;;;;24.81;37.80;95232.50;6125493;28;109145;-62
2023/07/23 11:44:04;;;;;;;9.53;8.60;;;;;;;24.81;37.49;95251.25;6119583;28;108997;-62
2023/07/23 11:47:07;;;;;;;8.77;7.87;;;;;;;24.77;37.73;95241.19;6113202;28;109151;-62
2023/07/23 11:50:10;;;;;;;9.50;8.60;;;;;;;24.78;37.67;95245.44;6114062;28;109318;-62
2023/07/23 11:53:14;;;;;;;9.27;8.37;;;;;;;24.81;37.63;95248.56;6122889;28;109255;-62
2023/07/23 11:56:24;;;;;;;8.10;7.40;;;;;;;24.79;37.80;95240.84;6120578;28;109914;-62
2023/07/23 11:59:27;;;;;;;10.63;8.10;;;;;;;24.80;38.58;95231.72;6100295;28;109291;-62
2023/07/23 12:02:30;;;;;;;9.23;8.30;;;;;;;24.79;38.39;95235.50;6112667;28;109124;-62
2023/07/23 12:05:33;;;;;;;9.60;8.10;;;;;;;24.77;38.41;95235.03;6105198;28;109867;-62
2023/07/23 12:08:38;;;;;;;10.87;8.30;;;;;;;24.68;38.71;95227.00;6114940;28;109313;-62
2023/07/23 12:11:43;;;;;;;10.90;7.60;;;;;;;24.66;37.89;95229.19;6114645;28;111780;-62
2023/07/23 12:14:46;;;;;;;8.57;7.87;;;;;;;24.67;37.79;95233.44;6114616;28;110173;-62
2023/07/23 12:17:51;;;;;;;7.67;6.93;;;;;;;24.70;37.81;95230.19;6103913;28;109137;-62
2023/07/23 12:21:00;;;;;;;8.20;7.50;;;;;;;24.64;37.47;95227.94;6114949;28;109061;-62
2023/07/23 12:24:18;;;;;;;8.27;7.47;;;;;;;24.60;37.40;95225.13;6125145;28;109274;-62
2023/07/23 12:27:23;;;;;;;7.97;7.27;;;;;;;24.67;37.43;95219.28;6112369;28;109128;-62
2023/07/23 12:30:26;;;;;;;7.33;6.67;;;;;;;24.69;37.09;95217.09;6117151;28;109275;-62
2023/07/23 12:33:29;;;;;;;7.63;6.90;;;;;;;24.62;37.31;95230.94;6137557;28;109074;-62
2023/07/23 12:36:32;;;;;;;7.67;6.97;;;;;;;24.63;37.54;95227.16;6125401;28;109350;-62
2023/07/23 12:39:36;;;;;;;8.33;7.00;;;;;;;24.50;37.80;95225.44;6103939;28;109114;-62
2023/07/23 12:42:40;;;;;;;8.83;7.50;;;;;;;24.43;37.47;95214.44;6114430;28;109207;-62
2023/07/23 12:45:43;;;;;;;7.60;6.90;;;;;;;24.45;37.78;95218.38;6119733;28;108999;-64
2023/07/23 12:48:47;;;;;;;9.63;7.43;;;;;;;24.60;37.42;95209.06;6127465;28;109203;-68
2023/07/23 12:51:50;;;;;;;9.80;7.67;;;;;;;24.58;37.72;95216.63;6118479;28;110102;-68
2023/07/23 12:54:53;;;;;;;8.53;6.87;;;;;;;24.55;37.49;95217.25;6114215;28;109816;-71
2023/07/23 12:57:58;;;;;;;13.30;9.03;;;;;;;24.38;39.98;95222.63;6123402;28;109869;-71
2023/07/23 13:01:01;;;;;;;10.57;9.20;;;;;;;24.11;41.46;95218.38;6111810;28;109522;-63
2023/07/23 13:04:04;;;;;;;10.13;9.13;;;;;;;24.10;42.00;95216.81;6130780;28;110170;-71
2023/07/23 13:07:08;;;;;;;9.67;8.77;;;;;;;24.13;41.36;95216.97;6137894;28;110148;-72
2023/07/23 13:10:11;;;;;;;9.33;8.53;;;;;;;24.09;41.40;95217.91;6137345;28;109988;-71
2023/07/23 13:13:15;;;;;;;10.60;9.60;;;;;;;24.01;41.59;95222.13;6123344;28;109253;-70
2023/07/23 13:16:18;;;;;;;11.17;9.07;;;;;;;23.94;41.45;95221.00;6121390;28;109187;-70
2023/07/23 13:19:23;;;;;;;9.83;8.93;;;;;;;23.99;41.19;95223.53;6133913;28;109089;-70
2023/07/23 13:22:26;;;;;;;10.33;9.43;;;;;;;23.98;41.12;95221.94;6130030;28;110816;-71
2023/07/23 13:25:29;;;;;;;10.60;9.50;;;;;;;23.97;40.82;95223.84;6122222;28;109374;-69
2023/07/23 13:28:34;;;;;;;10.10;9.20;;;;;;;23.89;40.68;95228.09;6115813;28;110127;-70
2023/07/23 13:31:37;;;;;;;9.53;8.60;;;;;;;23.84;40.69;95224.75;6118601;28;109189;-71
2023/07/23 13:34:40;;;;;;;10.47;9.37;;;;;;;23.78;40.58;95220.66;6112746;28;109108;-71
2023/07/23 13:37:43;;;;;;;10.50;9.50;;;;;;;23.83;41.04;95231.97;6103705;28;109244;-70
2023/07/23 13:40:46;;;;;;;11.17;9.83;;;;;;;23.76;40.97;95222.88;6113101;28;109098;-70
2023/07/23 13:43:50;;;;;;;10.70;9.70;;;;;;;23.79;41.10;95241.72;6113540;28;109191;-70
2023/07/23 13:46:53;;;;;;;10.27;9.27;;;;;;;23.80;40.80;95229.94;6118906;28;109154;-69
2023/07/23 13:49:56;;;;;;;10.70;9.60;;;;;;;23.84;40.34;95240.78;6116071;28;109021;-71
2023/07/23 13:52:59;;;;;;;11.47;9.87;;;;;;;23.87;40.78;95235.63;6111019;28;109290;-69
2023/07/23 13:56:03;;;;;;;10.77;9.67;;;;;;;23.92;40.43;95245.38;6123815;28;110852;-69
2023/07/23 13:59:07;;;;;;;11.50;10.40;;;;;;;23.89;39.91;95233.44;6100662;28;110002;-68
2023/07/23 14:02:10;;;;;;;10.40;9.30;;;;;;;24.58;39.86;95229.22;6120830;28;109033;-68
2023/07/23 14:05:14;;;;;;;14.10;10.00;;;;;;;25.46;38.68;95229.47;6111557;28;109053;-68